Time;durP1;ratioP1;P1;durP2;ratioP2;P2;SDS_P1;SDS_P2;PMS_P1;PMS_P2;Temp;Humidity;BMP_temperature;BMP_pressure;BME280_temperature;BME280_humidity;BME280_pressure;Samples;Min_cycle;Max_cycle;Signal;HPM_P1;HPM_P2
2021/09/16 00:01:10;;;;;;;12.60;7.53;;;;;;;21.20;58.41;100144.53;5041525;28;20528;-62
2021/09/16 00:03:35;;;;;;;16.13;7.97;;;;;;;21.16;58.62;100151.47;5049628;28;20036;-63
2021/09/16 00:06:01;;;;;;;11.82;8.18;;;;;;;21.15;58.57;100150.63;5041069;28;20036;-63
2021/09/16 00:08:26;;;;;;;10.93;7.53;;;;;;;21.11;58.69;100154.81;5040782;28;20033;-62
2021/09/16 00:10:51;;;;;;;12.60;7.28;;;;;;;21.06;58.99;100146.41;5037280;28;20686;-62
2021/09/16 00:13:17;;;;;;;12.93;7.88;;;;;;;21.04;59.13;100153.09;5044434;28;20079;-62
2021/09/16 00:15:42;;;;;;;10.30;7.67;;;;;;;21.01;59.31;100159.81;5041012;28;20533;-62
2021/09/16 00:18:08;;;;;;;9.88;7.47;;;;;;;20.98;59.37;100151.19;5042172;28;20032;-63
2021/09/16 00:20:34;;;;;;;14.50;8.07;;;;;;;20.87;59.46;100140.88;5044094;28;20378;-62
2021/09/16 00:22:59;;;;;;;8.57;7.68;;;;;;;20.93;59.58;100159.13;5044798;28;20074;-62
2021/09/16 00:25:25;;;;;;;11.27;7.63;;;;;;;20.83;59.55;100142.31;5039916;28;20021;-62
2021/09/16 00:27:50;;;;;;;9.30;7.50;;;;;;;20.86;59.69;100156.38;5045655;28;20029;-63
2021/09/16 00:30:16;;;;;;;14.48;7.88;;;;;;;20.81;59.92;100152.59;5038914;28;20033;-62
2021/09/16 00:32:42;;;;;;;12.98;7.55;;;;;;;20.67;59.86;100124.44;5045621;28;20516;-62
2021/09/16 00:35:08;;;;;;;12.70;7.35;;;;;;;20.70;59.78;100140.38;5043864;28;20056;-62
2021/09/16 00:37:34;;;;;;;14.70;8.13;;;;;;;20.75;59.66;100154.25;5035887;28;20414;-62
2021/09/16 00:40:00;;;;;;;13.40;7.82;;;;;;;20.68;59.97;100147.94;5044111;28;20032;-62
2021/09/16 00:42:25;;;;;;;16.23;7.90;;;;;;;20.69;59.91;100152.31;5038722;28;20033;-62
2021/09/16 00:44:51;;;;;;;13.02;8.15;;;;;;;20.70;59.79;100154.00;5041600;28;20037;-62
2021/09/16 00:47:17;;;;;;;12.00;7.68;;;;;;;20.67;59.97;100139.97;5044940;28;20120;-62
2021/09/16 00:49:44;;;;;;;12.93;8.18;;;;;;;20.66;59.88;100150.00;5042276;28;20037;-62
2021/09/16 00:52:11;;;;;;;10.45;8.20;;;;;;;20.64;60.23;100149.38;5038835;28;20481;-63
2021/09/16 00:54:37;;;;;;;13.65;8.43;;;;;;;20.51;60.29;100127.53;5049218;28;20717;-62
2021/09/16 00:57:05;;;;;;;12.90;7.90;;;;;;;20.57;60.29;100144.94;5039837;28;20506;-62
2021/09/16 00:59:35;;;;;;;11.65;8.35;;;;;;;20.56;60.24;100143.25;5042199;28;20040;-62
2021/09/16 01:02:01;;;;;;;12.15;8.00;;;;;;;20.52;60.15;100144.69;5039059;28;20028;-62
2021/09/16 01:04:28;;;;;;;12.50;8.00;;;;;;;20.42;60.22;100126.00;5044883;28;20033;-63
2021/09/16 01:06:54;;;;;;;14.63;8.40;;;;;;;20.50;60.28;100144.09;5038292;28;20785;-62
2021/09/16 01:09:19;;;;;;;15.90;7.70;;;;;;;20.48;60.26;100147.00;5040767;28;20025;-62
2021/09/16 01:11:45;;;;;;;12.93;7.85;;;;;;;20.42;60.70;100138.78;5038398;28;20033;-62
2021/09/16 01:14:10;;;;;;;14.23;7.82;;;;;;;20.41;60.83;100128.94;5040195;28;20037;-62
2021/09/16 01:16:36;;;;;;;9.88;8.23;;;;;;;20.43;60.83;100140.47;5043394;28;20025;-62
2021/09/16 01:19:02;;;;;;;14.70;9.50;;;;;;;20.40;60.91;100143.59;5039861;28;20017;-70
2021/09/16 01:21:27;;;;;;;14.63;8.50;;;;;;;20.40;60.99;100138.13;5042387;28;20067;-69
2021/09/16 01:23:52;;;;;;;13.50;8.25;;;;;;;20.39;61.02;100141.91;5037387;28;20025;-70
2021/09/16 01:26:18;;;;;;;10.05;7.70;;;;;;;20.37;60.80;100139.38;5040910;28;20041;-69
2021/09/16 01:28:43;;;;;;;9.32;7.85;;;;;;;20.39;60.66;100136.47;5043132;28;20025;-70
2021/09/16 01:31:09;;;;;;;13.73;8.32;;;;;;;20.34;60.76;100130.78;5037549;28;20036;-70
2021/09/16 01:33:34;;;;;;;11.63;8.10;;;;;;;20.39;60.59;100134.59;5042645;28;20174;-70
2021/09/16 01:36:00;;;;;;;12.50;8.63;;;;;;;20.40;60.64;100143.59;5040521;28;20049;-70
2021/09/16 01:38:25;;;;;;;12.75;8.25;;;;;;;20.39;60.47;100139.19;5043207;28;20063;-70
2021/09/16 01:40:52;;;;;;;14.75;8.18;;;;;;;20.42;60.42;100141.50;5042463;28;20087;-69
2021/09/16 01:43:17;;;;;;;13.90;9.10;;;;;;;20.37;60.52;100124.94;5041364;28;20036;-70
2021/09/16 01:45:43;;;;;;;14.23;8.88;;;;;;;20.43;60.46;100127.69;5035545;28;20032;-70
2021/09/16 01:48:08;;;;;;;16.27;9.10;;;;;;;20.31;60.40;100106.69;5043777;28;20028;-70
2021/09/16 01:50:34;;;;;;;11.27;7.68;;;;;;;20.47;60.46;100133.59;5045116;28;20395;-70
2021/09/16 01:52:59;;;;;;;14.88;8.77;;;;;;;20.48;60.51;100127.94;5039357;28;20032;-70
2021/09/16 01:55:25;;;;;;;13.18;8.35;;;;;;;20.49;60.53;100126.88;5039669;28;20025;-70
2021/09/16 01:57:51;;;;;;;16.95;8.50;;;;;;;20.52;60.33;100125.63;5048648;28;20029;-69
2021/09/16 02:00:17;;;;;;;9.02;7.60;;;;;;;20.46;60.34;100118.25;5041451;28;20171;-69
2021/09/16 02:02:43;;;;;;;10.82;8.65;;;;;;;20.55;60.58;100133.41;5048138;28;20099;-69
2021/09/16 02:05:09;;;;;;;12.57;8.52;;;;;;;20.56;60.45;100124.16;5047909;28;20055;-69
2021/09/16 02:07:34;;;;;;;14.15;7.88;;;;;;;20.55;60.35;100112.44;5046412;28;20043;-69
2021/09/16 02:10:01;;;;;;;17.08;8.35;;;;;;;20.56;60.40;100121.44;5041573;28;20021;-70
2021/09/16 02:12:26;;;;;;;11.10;8.25;;;;;;;20.59;60.46;100121.03;5045491;28;20033;-70
2021/09/16 02:14:52;;;;;;;11.02;8.68;;;;;;;20.56;59.95;100113.28;5043096;28;20508;-70
2021/09/16 02:17:17;;;;;;;11.25;8.55;;;;;;;20.59;59.78;100121.91;5050362;28;20503;-62
2021/09/16 02:19:43;;;;;;;14.85;9.00;;;;;;;20.61;59.77;100105.34;5041268;28;20120;-62
2021/09/16 02:22:09;;;;;;;13.50;9.05;;;;;;;20.61;59.67;100111.63;5046692;28;20028;-61
2021/09/16 02:24:34;;;;;;;12.45;8.60;;;;;;;20.62;59.63;100109.72;5043226;28;20090;-61
2021/09/16 02:27:00;;;;;;;12.90;8.02;;;;;;;20.55;59.43;100095.25;5041529;28;20040;-62
2021/09/16 02:29:25;;;;;;;12.60;8.10;;;;;;;20.64;59.23;100105.78;5047200;28;20037;-69
2021/09/16 02:31:50;;;;;;;10.65;7.82;;;;;;;20.59;59.13;100099.25;5045930;28;20039;-68
2021/09/16 02:34:16;;;;;;;11.18;8.50;;;;;;;20.66;58.76;100102.84;5042870;28;20502;-69
2021/09/16 02:36:41;;;;;;;11.35;8.77;;;;;;;20.69;59.01;100110.59;5040936;28;20422;-69
2021/09/16 02:39:07;;;;;;;16.63;9.10;;;;;;;20.63;58.91;100098.63;5044389;28;20056;-69
2021/09/16 02:41:33;;;;;;;12.63;8.68;;;;;;;20.69;59.14;100105.13;5043919;28;20041;-69
2021/09/16 02:43:58;;;;;;;18.15;8.70;;;;;;;20.73;59.14;100103.72;5044793;28;20052;-69
2021/09/16 02:46:24;;;;;;;11.60;9.13;;;;;;;20.73;59.24;100103.72;5038763;28;20059;-69
2021/09/16 02:48:50;;;;;;;14.80;9.13;;;;;;;20.71;59.47;100095.75;5042366;28;20048;-71
2021/09/16 02:51:15;;;;;;;10.48;7.88;;;;;;;20.75;59.00;100102.44;5043722;28;20041;-70
2021/09/16 02:53:41;;;;;;;13.82;8.85;;;;;;;20.75;58.57;100098.88;5040936;28;20375;-70
2021/09/16 02:56:06;;;;;;;11.02;8.35;;;;;;;20.76;58.57;100104.13;5046576;28;20033;-69
2021/09/16 02:58:32;;;;;;;10.73;8.05;;;;;;;20.75;58.69;100099.72;5049932;28;20629;-69
2021/09/16 03:00:57;;;;;;;12.45;9.15;;;;;;;20.77;58.56;100099.53;5040696;28;20033;-69
2021/09/16 03:03:23;;;;;;;13.77;8.50;;;;;;;20.79;58.69;100100.16;5045486;28;20021;-70
2021/09/16 03:05:48;;;;;;;14.57;8.88;;;;;;;20.79;58.57;100094.72;5046734;28;20029;-70
2021/09/16 03:08:13;;;;;;;10.05;7.38;;;;;;;20.80;58.57;100099.13;5041382;28;20043;-70
2021/09/16 03:10:39;;;;;;;12.05;7.65;;;;;;;20.77;58.49;100085.88;5041567;28;20040;-69
2021/09/16 03:13:05;;;;;;;12.32;8.02;;;;;;;20.81;58.32;100092.59;5043005;28;20040;-70
2021/09/16 03:15:31;;;;;;;14.75;9.00;;;;;;;20.81;58.48;100089.88;5048632;28;20035;-69
2021/09/16 03:17:56;;;;;;;13.40;8.25;;;;;;;20.82;58.39;100089.66;5042238;28;20027;-69
2021/09/16 03:20:22;;;;;;;12.30;8.23;;;;;;;20.83;58.33;100085.88;5047428;28;20044;-70
2021/09/16 03:22:48;;;;;;;12.60;8.02;;;;;;;20.83;58.08;100074.16;5046845;28;20029;-70
2021/09/16 03:25:13;;;;;;;15.40;8.15;;;;;;;20.74;57.86;100070.78;5045968;28;20036;-71
2021/09/16 03:27:39;;;;;;;12.18;8.27;;;;;;;20.63;57.59;100049.56;5046290;28;20029;-71
2021/09/16 03:30:07;;;;;;;11.45;8.18;;;;;;;20.82;57.67;100078.78;5049503;28;20415;-71
2021/09/16 03:32:33;;;;;;;15.75;7.93;;;;;;;20.87;57.69;100086.34;5036231;28;20037;-70
2021/09/16 03:34:58;;;;;;;12.57;8.77;;;;;;;20.87;57.92;100094.50;5048419;28;20040;-70
2021/09/16 03:37:24;;;;;;;11.43;8.25;;;;;;;20.84;58.11;100084.00;5048531;28;20471;-71
2021/09/16 03:39:49;;;;;;;15.18;8.45;;;;;;;20.88;57.98;100085.28;5041221;28;21886;-71
2021/09/16 03:42:15;;;;;;;12.20;8.77;;;;;;;20.82;58.04;100075.19;5041064;28;20024;-70
2021/09/16 03:44:40;;;;;;;13.75;8.18;;;;;;;20.88;57.83;100079.81;5045015;28;20033;-62
2021/09/16 03:47:06;;;;;;;13.32;9.15;;;;;;;20.76;57.84;100054.25;5051585;28;20029;-62
2021/09/16 03:49:35;;;;;;;13.73;8.68;;;;;;;20.88;57.71;100071.66;5042266;28;20033;-63
2021/09/16 03:52:02;;;;;;;12.90;8.80;;;;;;;20.84;57.64;100071.25;5035919;28;20059;-63
2021/09/16 03:54:28;;;;;;;12.48;8.45;;;;;;;20.89;57.52;100078.81;5045177;28;20082;-63
2021/09/16 03:56:54;;;;;;;13.18;8.05;;;;;;;20.88;57.49;100077.94;5043752;28;20028;-63
2021/09/16 03:59:19;;;;;;;15.98;8.30;;;;;;;20.90;57.55;100075.03;5044235;28;20025;-62
2021/09/16 04:01:45;;;;;;;12.57;8.05;;;;;;;20.79;57.59;100051.09;5037649;28;20036;-62
2021/09/16 04:04:10;;;;;;;15.27;8.40;;;;;;;20.88;57.84;100075.22;5042292;28;20036;-63
2021/09/16 04:06:36;;;;;;;11.45;7.75;;;;;;;20.81;57.90;100055.28;5040797;28;20021;-63
2021/09/16 04:09:01;;;;;;;12.70;8.60;;;;;;;20.87;58.18;100062.66;5042714;28;20078;-63
2021/09/16 04:11:26;;;;;;;13.80;8.18;;;;;;;20.87;58.34;100061.78;5040624;28;20037;-63
2021/09/16 04:13:52;;;;;;;12.57;7.13;;;;;;;20.89;58.38;100054.25;5044037;28;20028;-63
2021/09/16 04:16:17;;;;;;;15.20;8.27;;;;;;;20.89;58.61;100062.44;5035014;28;20036;-63
2021/09/16 04:18:43;;;;;;;16.92;9.10;;;;;;;20.85;59.64;100055.69;5035026;28;20536;-63
2021/09/16 04:21:08;;;;;;;16.73;8.25;;;;;;;20.80;59.45;100044.59;5038180;28;20033;-62
2021/09/16 04:23:34;;;;;;;16.25;8.65;;;;;;;20.87;59.12;100054.47;5029820;28;20037;-63
2021/09/16 04:25:59;;;;;;;13.57;8.10;;;;;;;20.83;59.11;100055.09;5029948;28;20033;-63
2021/09/16 04:28:25;;;;;;;11.55;8.90;;;;;;;20.87;59.71;100059.06;5033131;28;20117;-62
2021/09/16 04:30:50;;;;;;;14.60;9.18;;;;;;;20.87;59.59;100057.19;5030442;28;20038;-63
2021/09/16 04:33:15;;;;;;;12.38;7.78;;;;;;;20.86;59.29;100063.66;5034904;28;20037;-62
2021/09/16 04:35:41;;;;;;;15.35;9.25;;;;;;;20.81;59.25;100059.91;5028803;28;20029;-62
2021/09/16 04:38:06;;;;;;;11.63;8.10;;;;;;;20.85;59.53;100075.63;5034610;28;20063;-62
2021/09/16 04:40:33;;;;;;;12.00;7.88;;;;;;;20.88;59.58;100077.09;5033253;28;20056;-62
2021/09/16 04:42:58;;;;;;;12.02;8.18;;;;;;;20.86;59.69;100080.03;5033869;28;20414;-63
2021/09/16 04:45:24;;;;;;;11.32;7.88;;;;;;;20.81;59.60;100062.63;5038430;28;20029;-63
2021/09/16 04:47:49;;;;;;;9.57;7.47;;;;;;;20.88;59.56;100085.28;5043562;28;20104;-63
2021/09/16 04:50:15;;;;;;;13.27;8.07;;;;;;;20.81;59.53;100068.06;5038783;28;20033;-63
2021/09/16 04:52:40;;;;;;;15.55;7.65;;;;;;;20.76;59.62;100055.06;5042230;28;20035;-64
2021/09/16 04:55:07;;;;;;;9.88;7.18;;;;;;;20.89;59.87;100079.63;5040371;28;20098;-63
2021/09/16 04:57:32;;;;;;;15.43;8.18;;;;;;;20.89;59.68;100081.53;5039738;28;20047;-64
2021/09/16 04:59:58;;;;;;;14.75;7.40;;;;;;;20.89;59.77;100082.34;5039566;28;20033;-62
2021/09/16 05:02:23;;;;;;;12.75;8.13;;;;;;;20.89;59.84;100081.53;5038785;28;20406;-63
2021/09/16 05:04:49;;;;;;;9.88;7.47;;;;;;;20.92;59.69;100086.56;5028472;28;20033;-62
2021/09/16 05:07:14;;;;;;;11.80;7.45;;;;;;;20.90;59.61;100085.94;5044330;28;20071;-64
2021/09/16 05:09:40;;;;;;;12.98;7.07;;;;;;;20.92;59.63;100083.84;5040071;28;20108;-63
2021/09/16 05:12:05;;;;;;;14.90;8.23;;;;;;;20.87;59.98;100078.16;5044435;28;20159;-63
2021/09/16 05:14:31;;;;;;;12.73;7.18;;;;;;;20.92;60.03;100081.94;5044368;28;20032;-63
2021/09/16 05:16:57;;;;;;;11.82;7.43;;;;;;;20.93;59.66;100085.50;5055664;28;20481;-62
2021/09/16 05:19:22;;;;;;;9.85;7.43;;;;;;;20.97;59.60;100090.38;5064876;28;20091;-63
2021/09/16 05:21:48;;;;;;;16.15;7.82;;;;;;;20.99;59.66;100093.72;5042745;28;20028;-64
2021/09/16 05:24:17;;;;;;;15.38;7.47;;;;;;;21.01;59.66;100093.50;5040617;28;20142;-63
2021/09/16 05:26:44;;;;;;;14.77;7.85;;;;;;;21.04;59.45;100087.66;5042506;28;20028;-63
2021/09/16 05:29:10;;;;;;;17.90;7.35;;;;;;;21.00;59.52;100094.56;5058515;28;20138;-64
2021/09/16 05:31:35;;;;;;;11.60;6.60;;;;;;;21.09;59.77;100093.34;5044062;28;20029;-64
2021/09/16 05:34:00;;;;;;;11.85;7.22;;;;;;;21.11;59.54;100089.34;5046433;28;20482;-63
2021/09/16 05:36:26;;;;;;;15.55;7.55;;;;;;;21.10;59.77;100087.69;5049447;28;20041;-63
2021/09/16 05:38:51;;;;;;;16.92;7.80;;;;;;;21.18;59.61;100103.81;5047507;28;20095;-62
2021/09/16 05:41:17;;;;;;;15.07;7.70;;;;;;;21.19;59.78;100080.13;5045041;28;20045;-62
2021/09/16 05:43:42;;;;;;;14.10;7.65;;;;;;;21.26;59.65;100092.72;5041968;28;20012;-64
2021/09/16 05:46:08;;;;;;;16.83;7.82;;;;;;;21.26;59.78;100091.88;5045557;28;20036;-63
2021/09/16 05:48:33;;;;;;;16.15;7.45;;;;;;;21.36;59.42;100081.38;5045409;28;20033;-63
2021/09/16 05:50:58;;;;;;;10.93;6.88;;;;;;;21.42;59.22;100089.59;5048921;28;20028;-63
2021/09/16 05:53:24;;;;;;;16.90;6.82;;;;;;;21.49;59.07;100092.31;5049410;28;20083;-63
2021/09/16 05:55:49;;;;;;;14.15;6.60;;;;;;;21.55;58.64;100081.41;5045889;28;20021;-63
2021/09/16 05:58:15;;;;;;;12.15;6.68;;;;;;;21.72;58.05;100088.09;5048160;28;20393;-64
2021/09/16 06:00:40;;;;;;;15.98;6.93;;;;;;;21.83;57.77;100082.00;5044062;28;20032;-63
2021/09/16 06:03:06;;;;;;;12.73;6.75;;;;;;;21.93;57.58;100071.47;5046115;28;20029;-63
2021/09/16 06:05:31;;;;;;;12.18;6.53;;;;;;;22.07;57.20;100081.34;5043814;28;20029;-63
2021/09/16 06:07:56;;;;;;;15.00;7.32;;;;;;;22.24;56.78;100079.81;5046746;28;20086;-63
2021/09/16 06:10:22;;;;;;;15.20;6.28;;;;;;;22.37;56.35;100091.75;5043991;28;20515;-64
2021/09/16 06:12:47;;;;;;;17.33;6.32;;;;;;;22.49;55.88;100096.34;5045062;28;20079;-63
2021/09/16 06:15:13;;;;;;;14.32;5.80;;;;;;;22.68;55.35;100097.31;5047067;28;20029;-63
2021/09/16 06:17:38;;;;;;;13.18;6.05;;;;;;;22.84;55.06;100099.56;5044878;28;20029;-64
2021/09/16 06:20:05;;;;;;;10.98;5.85;;;;;;;22.95;54.59;100091.47;5047044;28;20041;-63
2021/09/16 06:22:31;;;;;;;12.38;6.45;;;;;;;23.16;54.14;100103.97;5045483;28;20040;-64
2021/09/16 06:24:56;;;;;;;12.63;6.00;;;;;;;23.32;53.56;100101.59;5042851;28;20025;-63
2021/09/16 06:27:22;;;;;;;10.50;5.45;;;;;;;23.48;53.11;100092.84;5046033;28;20489;-64
2021/09/16 06:29:47;;;;;;;12.80;5.85;;;;;;;23.67;52.95;100093.72;5048161;28;20029;-63
2021/09/16 06:32:13;;;;;;;9.10;5.28;;;;;;;23.86;52.25;100095.44;5048687;28;20076;-64
2021/09/16 06:34:38;;;;;;;8.57;5.40;;;;;;;23.95;51.51;100088.59;5042741;28;20056;-64
2021/09/16 06:37:04;;;;;;;9.43;5.47;;;;;;;24.23;51.28;100099.91;5039737;28;20047;-64
2021/09/16 06:39:29;;;;;;;13.18;5.68;;;;;;;24.41;50.60;100089.78;5047412;28;20095;-64
2021/09/16 06:41:55;;;;;;;8.55;6.03;;;;;;;24.44;50.25;100078.34;5045576;28;20047;-62
2021/09/16 06:44:21;;;;;;;9.23;5.22;;;;;;;24.79;49.84;100097.75;5042890;28;20083;-64
2021/09/16 06:46:46;;;;;;;11.70;5.47;;;;;;;24.83;49.40;100076.19;5046672;28;20463;-63
2021/09/16 06:49:12;;;;;;;7.72;5.25;;;;;;;25.17;48.72;100094.66;5042985;28;20311;-63
2021/09/16 06:51:37;;;;;;;7.38;5.10;;;;;;;25.37;48.21;100078.78;5044969;28;20025;-64
2021/09/16 06:54:02;;;;;;;6.97;5.07;;;;;;;25.52;47.71;100085.47;5045485;28;20020;-63
2021/09/16 06:56:28;;;;;;;6.25;5.10;;;;;;;25.65;46.99;100065.19;5043446;28;20096;-64
2021/09/16 06:58:54;;;;;;;10.35;5.03;;;;;;;25.89;46.79;100077.88;5044537;28;20037;-64
2021/09/16 07:01:19;;;;;;;8.95;4.95;;;;;;;26.04;46.14;100078.22;5047101;28;20037;-64
2021/09/16 07:03:46;;;;;;;6.95;5.15;;;;;;;26.25;45.80;100083.13;5052934;28;20365;-64
2021/09/16 07:06:12;;;;;;;6.85;4.80;;;;;;;26.44;45.31;100084.63;5039086;28;20450;-63
2021/09/16 07:08:37;;;;;;;9.88;5.00;;;;;;;26.58;44.73;100083.28;5044425;28;20028;-63
2021/09/16 07:11:03;;;;;;;7.53;4.53;;;;;;;26.77;44.65;100089.47;5046143;28;20601;-64
2021/09/16 07:13:28;;;;;;;10.15;4.93;;;;;;;26.91;44.08;100082.56;5045937;28;20029;-64
2021/09/16 07:15:54;;;;;;;6.55;4.75;;;;;;;27.10;43.16;100082.13;5042400;28;20024;-63
2021/09/16 07:18:19;;;;;;;6.20;4.80;;;;;;;27.27;43.38;100087.72;5046398;28;20017;-64
2021/09/16 07:20:45;;;;;;;7.10;4.75;;;;;;;27.44;42.74;100091.31;5048001;28;20679;-64
2021/09/16 07:23:10;;;;;;;6.78;4.97;;;;;;;27.59;42.56;100092.41;5043437;28;20138;-70
2021/09/16 07:25:36;;;;;;;7.75;4.85;;;;;;;27.77;42.18;100092.16;5047897;28;20601;-69
2021/09/16 07:28:01;;;;;;;10.55;5.18;;;;;;;27.90;42.21;100094.59;5043985;28;20036;-70
2021/09/16 07:30:27;;;;;;;8.38;5.28;;;;;;;28.02;41.74;100092.56;5042030;28;20078;-71
2021/09/16 07:32:52;;;;;;;7.90;4.85;;;;;;;28.18;41.76;100099.97;5041951;28;20078;-70
2021/09/16 07:35:18;;;;;;;8.38;4.30;;;;;;;28.34;41.58;100099.09;5039843;28;20478;-70
2021/09/16 07:37:43;;;;;;;7.47;4.75;;;;;;;28.42;41.42;100084.88;5045182;28;20029;-70
2021/09/16 07:40:10;;;;;;;6.75;4.57;;;;;;;28.68;41.07;100096.22;5044367;28;20044;-70
2021/09/16 07:42:35;;;;;;;8.80;5.20;;;;;;;28.87;40.47;100089.28;5045493;28;20020;-70
2021/09/16 07:45:01;;;;;;;6.43;4.78;;;;;;;29.06;40.44;100094.25;5033284;28;20043;-69
2021/09/16 07:47:26;;;;;;;11.55;5.25;;;;;;;29.36;39.78;100096.47;5041328;28;20629;-69
2021/09/16 07:49:51;;;;;;;10.00;5.18;;;;;;;29.66;39.49;100086.53;5050795;28;20019;-69
2021/09/16 07:52:17;;;;;;;12.18;5.15;;;;;;;30.06;38.78;100080.47;5040877;28;20044;-70
2021/09/16 07:54:42;;;;;;;7.90;4.85;;;;;;;30.67;37.50;100087.16;5038896;28;20027;-70
2021/09/16 07:57:08;;;;;;;9.93;4.50;;;;;;;31.33;36.62;100080.78;5037200;28;20163;-69
2021/09/16 07:59:34;;;;;;;7.10;5.00;;;;;;;32.06;35.19;100078.28;5038109;28;20073;-69
2021/09/16 08:02:00;;;;;;;11.38;4.90;;;;;;;32.89;34.01;100075.78;5041128;28;20104;-69
2021/09/16 08:04:25;;;;;;;7.07;4.57;;;;;;;33.72;32.92;100075.47;5042409;28;20036;-70
2021/09/16 08:06:51;;;;;;;6.93;5.05;;;;;;;34.53;31.49;100072.75;5041861;28;20036;-70
2021/09/16 08:09:16;;;;;;;6.72;4.75;;;;;;;35.27;30.68;100078.41;5042926;28;20036;-69
2021/09/16 08:11:42;;;;;;;8.73;4.32;;;;;;;36.03;29.43;100067.69;5039490;28;20020;-70
2021/09/16 08:14:08;;;;;;;8.70;4.88;;;;;;;36.41;28.83;100062.78;5044908;28;20122;-69
2021/09/16 08:16:34;;;;;;;11.50;5.15;;;;;;;37.02;28.05;100070.69;5044003;28;20108;-70
2021/09/16 08:19:00;;;;;;;11.63;4.47;;;;;;;37.36;27.89;100063.47;5046911;28;20128;-70
2021/09/16 08:21:27;;;;;;;11.95;4.90;;;;;;;37.71;27.14;100059.81;5044100;28;20039;-70
2021/09/16 08:23:53;;;;;;;7.57;4.55;;;;;;;38.07;26.82;100062.50;5044270;28;20025;-69
2021/09/16 08:26:18;;;;;;;5.80;4.90;;;;;;;38.38;26.84;100063.31;5045189;28;20041;-70
2021/09/16 08:28:44;;;;;;;8.18;4.50;;;;;;;38.71;26.41;100061.81;5052174;28;20483;-70
2021/09/16 08:31:09;;;;;;;10.02;4.60;;;;;;;38.87;26.14;100062.19;5042040;28;20025;-70
2021/09/16 08:33:35;;;;;;;6.85;4.68;;;;;;;39.14;25.56;100073.97;5044785;28;20079;-70
2021/09/16 08:36:01;;;;;;;10.63;4.88;;;;;;;39.29;25.32;100067.84;5041772;28;20029;-70
2021/09/16 08:38:26;;;;;;;6.15;4.40;;;;;;;39.65;25.27;100071.16;5040755;28;20138;-70
2021/09/16 08:40:52;;;;;;;8.18;4.78;;;;;;;39.61;25.21;100070.19;5065611;28;20096;-70
2021/09/16 08:43:27;;;;;;;6.45;4.85;;;;;;;39.75;24.99;100086.88;5043780;28;20029;-69
2021/09/16 08:45:53;;;;;;;10.98;4.75;;;;;;;39.95;24.58;100086.19;5042015;28;20422;-70
2021/09/16 08:48:18;;;;;;;10.73;5.20;;;;;;;39.83;24.75;100072.00;5043629;28;20482;-69
2021/09/16 08:50:44;;;;;;;13.98;4.85;;;;;;;39.83;24.71;100067.22;5044479;28;20028;-71
2021/09/16 08:53:16;;;;;;;11.73;4.85;;;;;;;39.97;24.93;100072.66;5038143;28;20037;-69
2021/09/16 08:55:43;;;;;;;10.90;4.80;;;;;;;39.97;24.84;100062.22;5040314;28;20036;-70
2021/09/16 08:58:10;;;;;;;14.25;5.47;;;;;;;40.02;24.85;100050.81;5044460;28;20033;-70
2021/09/16 09:00:36;;;;;;;11.85;5.20;;;;;;;39.96;24.90;100052.13;5046053;28;20044;-69
2021/09/16 09:03:02;;;;;;;9.23;5.65;;;;;;;40.11;24.50;100065.63;5040931;28;20464;-71
2021/09/16 09:05:29;;;;;;;11.15;5.03;;;;;;;39.97;24.75;100065.03;5047404;28;20033;-71
2021/09/16 09:07:58;;;;;;;8.65;4.97;;;;;;;39.74;25.04;100055.13;5050998;28;20383;-71
2021/09/16 09:10:44;;;;;;;9.18;5.03;;;;;;;39.35;25.07;100055.31;5049175;28;20122;-70
2021/09/16 09:13:14;;;;;;;7.18;4.93;;;;;;;38.91;26.24;100051.97;5049004;28;20090;-71
2021/09/16 09:15:42;;;;;;;12.30;5.38;;;;;;;38.32;26.79;100040.22;5048606;28;20366;-70
2021/09/16 09:18:15;;;;;;;17.58;5.40;;;;;;;37.80;27.24;100051.47;5047929;28;20036;-71
2021/09/16 09:20:59;;;;;;;17.90;5.47;;;;;;;37.10;28.21;100047.59;5049822;28;20032;-69
2021/09/16 09:23:33;;;;;;;10.60;4.80;;;;;;;36.53;29.19;100047.13;5047651;28;20426;-70
2021/09/16 09:26:17;;;;;;;15.55;6.18;;;;;;;36.04;29.55;100051.75;5049466;28;20035;-70
2021/09/16 09:28:43;;;;;;;9.05;5.07;;;;;;;35.55;30.26;100054.25;5048005;28;20029;-70
2021/09/16 09:31:18;;;;;;;8.00;5.40;;;;;;;35.18;30.59;100060.72;5056051;28;20032;-70
2021/09/16 09:33:44;;;;;;;8.10;5.15;;;;;;;34.72;31.19;100031.78;5047910;28;20502;-71
2021/09/16 09:36:18;;;;;;;11.82;6.15;;;;;;;34.41;31.89;100039.72;5047454;28;20379;-69
2021/09/16 09:39:01;;;;;;;8.23;5.60;;;;;;;34.11;32.19;100045.59;5045281;28;20026;-70
2021/09/16 09:41:33;;;;;;;14.65;6.22;;;;;;;33.73;32.63;100052.13;5048691;28;20029;-69
2021/09/16 09:44:10;;;;;;;9.05;5.78;;;;;;;33.53;32.88;100048.69;5044726;28;20037;-71
2021/09/16 09:46:53;;;;;;;8.73;6.20;;;;;;;33.33;33.63;100044.06;5057562;28;20020;-70
2021/09/16 09:49:24;;;;;;;7.07;5.75;;;;;;;33.08;33.78;100057.34;5059471;28;20075;-69
2021/09/16 09:51:56;;;;;;;7.53;5.53;;;;;;;32.92;34.02;100048.28;5050128;28;20032;-71
2021/09/16 09:54:28;;;;;;;8.13;5.63;;;;;;;32.67;34.54;100041.97;5047210;28;20037;-71
2021/09/16 09:56:57;;;;;;;7.85;5.68;;;;;;;32.52;35.05;100046.50;5046724;28;20528;-64
2021/09/16 09:59:22;;;;;;;12.93;6.22;;;;;;;32.39;34.88;100027.66;5046159;28;20033;-63
2021/09/16 10:01:48;;;;;;;10.43;5.72;;;;;;;32.26;35.49;100044.06;5049078;28;20029;-63
2021/09/16 10:04:25;;;;;;;12.35;5.95;;;;;;;31.96;35.76;100006.13;5044896;28;20035;-63
2021/09/16 10:06:51;;;;;;;10.80;6.38;;;;;;;31.98;36.02;100037.19;5047622;28;20025;-63
2021/09/16 10:09:19;;;;;;;8.05;6.03;;;;;;;31.93;35.90;100033.59;5045505;28;20033;-63
2021/09/16 10:11:47;;;;;;;9.23;6.25;;;;;;;31.86;36.29;100024.75;5048894;28;20028;-63
2021/09/16 10:14:13;;;;;;;8.23;6.25;;;;;;;31.77;36.73;100027.22;5044343;28;20035;-64
2021/09/16 10:16:39;;;;;;;11.65;6.35;;;;;;;31.70;36.62;100018.38;5045151;28;20123;-62
2021/09/16 10:19:05;;;;;;;9.30;6.07;;;;;;;31.74;36.34;100030.56;5044840;28;20029;-64
2021/09/16 10:21:32;;;;;;;7.30;5.93;;;;;;;31.67;36.76;100026.41;5059225;28;20050;-64
2021/09/16 10:23:59;;;;;;;14.05;6.20;;;;;;;31.63;36.40;100023.34;5060208;28;20926;-64
2021/09/16 10:26:38;;;;;;;6.95;5.78;;;;;;;31.58;36.88;100019.75;5047267;28;20048;-63
2021/09/16 10:29:06;;;;;;;8.15;6.22;;;;;;;31.54;37.11;100025.03;5048035;28;20112;-63
2021/09/16 10:31:32;;;;;;;11.02;6.32;;;;;;;31.53;37.38;100020.59;5048514;28;20029;-63
2021/09/16 10:33:58;;;;;;;9.15;5.82;;;;;;;31.54;37.46;100016.72;5047278;28;20086;-64
2021/09/16 10:36:24;;;;;;;19.35;6.90;;;;;;;31.50;37.37;100007.28;5045652;28;20068;-64
2021/09/16 10:38:55;;;;;;;9.60;6.10;;;;;;;31.48;37.48;100003.97;5045804;28;20090;-63
2021/09/16 10:41:29;;;;;;;10.98;6.22;;;;;;;31.43;37.10;100006.72;5049483;28;20558;-63
2021/09/16 10:43:58;;;;;;;12.15;6.30;;;;;;;31.45;37.67;100007.28;5045533;28;21050;-63
2021/09/16 10:46:44;;;;;;;9.23;6.35;;;;;;;31.42;37.83;100010.63;5047017;28;20501;-63
2021/09/16 10:49:22;;;;;;;11.82;5.97;;;;;;;31.42;37.92;100012.56;5047123;28;20048;-63
2021/09/16 10:51:49;;;;;;;13.32;6.35;;;;;;;31.43;38.13;100006.72;5045772;28;20086;-64
2021/09/16 10:54:27;;;;;;;10.13;5.95;;;;;;;31.38;37.92;100005.91;5047578;28;20127;-64
2021/09/16 10:57:01;;;;;;;10.98;6.00;;;;;;;31.32;37.89;100002.31;5048029;28;20033;-63
2021/09/16 10:59:51;;;;;;;8.90;6.18;;;;;;;31.25;38.27;99995.34;5047188;28;20033;-64
2021/09/16 11:02:46;;;;;;;13.23;6.95;;;;;;;31.19;38.53;99996.44;5047153;28;20086;-64
2021/09/16 11:05:14;;;;;;;;;;;;;;;31.07;38.53;100004.19;5045325;28;20025;-64
2021/09/16 11:07:44;;;;;;;7.53;6.68;;;;;;;31.04;38.72;100005.56;5048656;28;19919;-64
2021/09/16 11:10:13;;;;;;;11.60;7.10;;;;;;;30.98;38.67;100003.91;5042180;28;20419;-63
2021/09/16 11:12:46;;;;;;;8.70;6.72;;;;;;;30.91;39.22;100003.34;5046439;28;20439;-64
2021/09/16 11:15:18;;;;;;;10.60;7.75;;;;;;;30.87;39.40;100007.78;5043793;28;20075;-64
2021/09/16 11:17:44;;;;;;;12.52;6.85;;;;;;;30.85;39.40;100009.16;5046859;28;20040;-64